sensor_id;sensor_type;location;lat;lon;timestamp;temperature;humidity
57390;DHT22;43217;52.694;6.214;2024-02-14T00:01:20;7.00;99.90
57390;DHT22;43217;52.694;6.214;2024-02-14T00:03:45;7.10;99.90
57390;DHT22;43217;52.694;6.214;2024-02-14T00:06:11;7.10;99.90
57390;DHT22;43217;52.694;6.214;2024-02-14T00:08:38;7.10;99.90
57390;DHT22;43217;52.694;6.214;2024-02-14T00:11:04;7.10;99.90
57390;DHT22;43217;52.694;6.214;2024-02-14T00:13:29;7.10;99.90
57390;DHT22;43217;52.694;6.214;2024-02-14T00:15:55;7.10;99.90
57390;DHT22;43217;52.694;6.214;2024-02-14T00:18:22;7.10;99.90
57390;DHT22;43217;52.694;6.214;2024-02-14T00:20:48;7.10;99.90
57390;DHT22;43217;52.694;6.214;2024-02-14T00:23:14;7.10;99.90
57390;DHT22;43217;52.694;6.214;2024-02-14T00:25:39;7.20;99.90
57390;DHT22;43217;52.694;6.214;2024-02-14T00:28:05;7.20;99.90
57390;DHT22;43217;52.694;6.214;2024-02-14T00:30:31;7.20;99.90
57390;DHT22;43217;52.694;6.214;2024-02-14T00:32:57;7.20;99.90
57390;DHT22;43217;52.694;6.214;2024-02-14T00:35:22;7.20;99.90
57390;DHT22;43217;52.694;6.214;2024-02-14T00:37:48;7.20;99.90
57390;DHT22;43217;52.694;6.214;2024-02-14T00:40:14;7.20;99.90
57390;DHT22;43217;52.694;6.214;2024-02-14T00:42:40;7.20;99.90
57390;DHT22;43217;52.694;6.214;2024-02-14T00:45:06;7.30;99.90
57390;DHT22;43217;52.694;6.214;2024-02-14T00:47:34;7.30;99.90
57390;DHT22;43217;52.694;6.214;2024-02-14T00:50:00;7.30;99.90
57390;DHT22;43217;52.694;6.214;2024-02-14T00:52:26;7.30;99.90
57390;DHT22;43217;52.694;6.214;2024-02-14T00:54:52;7.40;99.90
57390;DHT22;43217;52.694;6.214;2024-02-14T00:57:17;7.40;99.90
57390;DHT22;43217;52.694;6.214;2024-02-14T00:59:44;7.40;99.90
57390;DHT22;43217;52.694;6.214;2024-02-14T01:02:10;7.40;99.90
57390;DHT22;43217;52.694;6.214;2024-02-14T01:04:36;7.40;99.90
57390;DHT22;43217;52.694;6.214;2024-02-14T01:07:03;7.50;99.90
57390;DHT22;43217;52.694;6.214;2024-02-14T01:09:29;7.50;99.90
57390;DHT22;43217;52.694;6.214;2024-02-14T01:11:54;7.50;99.90
57390;DHT22;43217;52.694;6.214;2024-02-14T01:14:20;7.50;99.90
57390;DHT22;43217;52.694;6.214;2024-02-14T01:16:47;7.50;99.90
57390;DHT22;43217;52.694;6.214;2024-02-14T01:19:13;7.60;99.90
57390;DHT22;43217;52.694;6.214;2024-02-14T01:21:39;7.60;99.90
57390;DHT22;43217;52.694;6.214;2024-02-14T01:24:05;7.60;99.90
57390;DHT22;43217;52.694;6.214;2024-02-14T01:26:31;7.60;99.90
57390;DHT22;43217;52.694;6.214;2024-02-14T01:28:57;7.60;99.90
57390;DHT22;43217;52.694;6.214;2024-02-14T01:31:25;7.70;99.90
57390;DHT22;43217;52.694;6.214;2024-02-14T01:33:51;7.60;99.90
57390;DHT22;43217;52.694;6.214;2024-02-14T01:36:17;7.70;99.90
57390;DHT22;43217;52.694;6.214;2024-02-14T01:38:42;7.70;99.90
57390;DHT22;43217;52.694;6.214;2024-02-14T01:41:08;7.70;99.90
57390;DHT22;43217;52.694;6.214;2024-02-14T01:43:33;7.70;99.90
57390;DHT22;43217;52.694;6.214;2024-02-14T01:46:05;7.70;99.90
57390;DHT22;43217;52.694;6.214;2024-02-14T01:48:31;7.80;99.90
57390;DHT22;43217;52.694;6.214;2024-02-14T01:50:57;7.80;99.90
57390;DHT22;43217;52.694;6.214;2024-02-14T01:53:23;7.80;99.90
57390;DHT22;43217;52.694;6.214;2024-02-14T01:55:51;7.80;99.90
57390;DHT22;43217;52.694;6.214;2024-02-14T01:58:17;7.90;99.90
57390;DHT22;43217;52.694;6.214;2024-02-14T02:00:43;7.90;99.90
57390;DHT22;43217;52.694;6.214;2024-02-14T02:03:10;7.90;99.90
57390;DHT22;43217;52.694;6.214;2024-02-14T02:05:36;7.90;99.90
57390;DHT22;43217;52.694;6.214;2024-02-14T02:08:01;7.90;99.90
57390;DHT22;43217;52.694;6.214;2024-02-14T02:10:27;7.90;99.90
57390;DHT22;43217;52.694;6.214;2024-02-14T02:13:00;7.90;99.90
57390;DHT22;43217;52.694;6.214;2024-02-14T02:15:26;7.90;99.90
57390;DHT22;43217;52.694;6.214;2024-02-14T02:17:54;7.90;99.90
57390;DHT22;43217;52.694;6.214;2024-02-14T02:20:20;8.00;99.90
57390;DHT22;43217;52.694;6.214;2024-02-14T02:22:47;8.00;99.90
57390;DHT22;43217;52.694;6.214;2024-02-14T02:25:13;8.00;99.90
57390;DHT22;43217;52.694;6.214;2024-02-14T02:27:39;8.00;99.90
57390;DHT22;43217;52.694;6.214;2024-02-14T02:30:06;8.00;99.90
57390;DHT22;43217;52.694;6.214;2024-02-14T02:32:32;8.10;99.90
57390;DHT22;43217;52.694;6.214;2024-02-14T02:34:58;8.10;99.90
57390;DHT22;43217;52.694;6.214;2024-02-14T02:37:25;8.10;99.90
57390;DHT22;43217;52.694;6.214;2024-02-14T02:39:51;8.10;99.90
57390;DHT22;43217;52.694;6.214;2024-02-14T02:42:17;8.20;99.90
57390;DHT22;43217;52.694;6.214;2024-02-14T02:44:46;8.20;99.90
57390;DHT22;43217;52.694;6.214;2024-02-14T02:47:12;8.20;99.90
57390;DHT22;43217;52.694;6.214;2024-02-14T02:49:38;8.20;99.90
57390;DHT22;43217;52.694;6.214;2024-02-14T02:52:04;8.20;99.90
57390;DHT22;43217;52.694;6.214;2024-02-14T02:54:30;8.20;99.90
57390;DHT22;43217;52.694;6.214;2024-02-14T02:56:55;8.30;99.90
57390;DHT22;43217;52.694;6.214;2024-02-14T02:59:21;8.30;99.90
57390;DHT22;43217;52.694;6.214;2024-02-14T03:01:47;8.30;99.90
57390;DHT22;43217;52.694;6.214;2024-02-14T03:04:15;8.30;99.90
57390;DHT22;43217;52.694;6.214;2024-02-14T03:06:40;8.30;99.90
57390;DHT22;43217;52.694;6.214;2024-02-14T03:09:08;8.40;99.90
57390;DHT22;43217;52.694;6.214;2024-02-14T03:11:34;8.40;99.90
57390;DHT22;43217;52.694;6.214;2024-02-14T03:14:01;8.40;99.90
57390;DHT22;43217;52.694;6.214;2024-02-14T03:16:27;8.40;99.90
57390;DHT22;43217;52.694;6.214;2024-02-14T03:18:52;8.50;99.90
57390;DHT22;43217;52.694;6.214;2024-02-14T03:21:20;8.50;99.90
57390;DHT22;43217;52.694;6.214;2024-02-14T03:23:45;8.50;99.90
57390;DHT22;43217;52.694;6.214;2024-02-14T03:26:11;8.50;99.90
57390;DHT22;43217;52.694;6.214;2024-02-14T03:28:36;8.50;99.90
57390;DHT22;43217;52.694;6.214;2024-02-14T03:31:02;8.50;99.90
57390;DHT22;43217;52.694;6.214;2024-02-14T03:33:28;8.60;99.90
57390;DHT22;43217;52.694;6.214;2024-02-14T03:35:54;8.60;99.90
57390;DHT22;43217;52.694;6.214;2024-02-14T03:38:27;8.60;99.90
57390;DHT22;43217;52.694;6.214;2024-02-14T03:40:53;8.60;99.90
57390;DHT22;43217;52.694;6.214;2024-02-14T03:43:19;8.70;99.90
57390;DHT22;43217;52.694;6.214;2024-02-14T03:45:45;8.70;99.90
57390;DHT22;43217;52.694;6.214;2024-02-14T03:48:11;8.70;99.90
57390;DHT22;43217;52.694;6.214;2024-02-14T03:50:43;8.70;99.90
57390;DHT22;43217;52.694;6.214;2024-02-14T03:53:09;8.80;99.90
57390;DHT22;43217;52.694;6.214;2024-02-14T03:55:37;8.80;99.90
57390;DHT22;43217;52.694;6.214;2024-02-14T03:58:03;8.80;99.90
57390;DHT22;43217;52.694;6.214;2024-02-14T04:00:30;8.80;99.90
57390;DHT22;43217;52.694;6.214;2024-02-14T04:02:56;8.80;99.90
57390;DHT22;43217;52.694;6.214;2024-02-14T04:05:25;8.80;99.90
57390;DHT22;43217;52.694;6.214;2024-02-14T04:07:53;8.80;99.90
57390;DHT22;43217;52.694;6.214;2024-02-14T04:10:20;8.90;99.90
57390;DHT22;43217;52.694;6.214;2024-02-14T04:12:45;8.90;99.90
57390;DHT22;43217;52.694;6.214;2024-02-14T04:15:11;8.90;99.90
57390;DHT22;43217;52.694;6.214;2024-02-14T04:17:39;8.90;99.90
57390;DHT22;43217;52.694;6.214;2024-02-14T04:20:05;8.90;99.90
57390;DHT22;43217;52.694;6.214;2024-02-14T04:22:30;8.90;99.90
57390;DHT22;43217;52.694;6.214;2024-02-14T04:24:56;8.90;99.90
57390;DHT22;43217;52.694;6.214;2024-02-14T04:27:22;9.00;99.90
57390;DHT22;43217;52.694;6.214;2024-02-14T04:29:48;8.90;99.90
57390;DHT22;43217;52.694;6.214;2024-02-14T04:32:14;8.90;99.90
57390;DHT22;43217;52.694;6.214;2024-02-14T04:34:40;8.90;99.90
57390;DHT22;43217;52.694;6.214;2024-02-14T04:37:07;9.00;99.90
57390;DHT22;43217;52.694;6.214;2024-02-14T04:39:39;9.00;99.90
57390;DHT22;43217;52.694;6.214;2024-02-14T04:42:05;9.00;99.90
57390;DHT22;43217;52.694;6.214;2024-02-14T04:44:31;9.00;99.90
57390;DHT22;43217;52.694;6.214;2024-02-14T04:46:57;9.00;99.90
57390;DHT22;43217;52.694;6.214;2024-02-14T04:49:27;9.00;99.90
57390;DHT22;43217;52.694;6.214;2024-02-14T04:51:54;9.00;99.90
57390;DHT22;43217;52.694;6.214;2024-02-14T04:54:20;9.00;99.90
57390;DHT22;43217;52.694;6.214;2024-02-14T04:56:46;9.00;99.90
57390;DHT22;43217;52.694;6.214;2024-02-14T04:59:12;9.00;99.90
57390;DHT22;43217;52.694;6.214;2024-02-14T05:01:38;9.00;99.90
57390;DHT22;43217;52.694;6.214;2024-02-14T05:04:05;9.00;99.90
57390;DHT22;43217;52.694;6.214;2024-02-14T05:06:32;9.10;99.90
57390;DHT22;43217;52.694;6.214;2024-02-14T05:08:58;9.10;99.90
57390;DHT22;43217;52.694;6.214;2024-02-14T05:11:23;9.10;99.90
57390;DHT22;43217;52.694;6.214;2024-02-14T05:13:49;9.10;99.90
57390;DHT22;43217;52.694;6.214;2024-02-14T05:16:21;9.10;99.90
57390;DHT22;43217;52.694;6.214;2024-02-14T05:18:47;9.10;99.90
57390;DHT22;43217;52.694;6.214;2024-02-14T05:21:13;9.20;99.90
57390;DHT22;43217;52.694;6.214;2024-02-14T05:23:39;9.20;99.90
57390;DHT22;43217;52.694;6.214;2024-02-14T05:26:05;9.20;99.90
57390;DHT22;43217;52.694;6.214;2024-02-14T05:28:31;9.20;99.90
57390;DHT22;43217;52.694;6.214;2024-02-14T05:30:58;9.20;99.90
57390;DHT22;43217;52.694;6.214;2024-02-14T05:33:24;9.20;99.90
57390;DHT22;43217;52.694;6.214;2024-02-14T05:35:50;9.20;99.90
57390;DHT22;43217;52.694;6.214;2024-02-14T05:38:16;9.20;99.90
57390;DHT22;43217;52.694;6.214;2024-02-14T05:40:42;9.30;99.90
57390;DHT22;43217;52.694;6.214;2024-02-14T05:43:10;9.30;99.90
57390;DHT22;43217;52.694;6.214;2024-02-14T05:45:35;9.30;99.90
57390;DHT22;43217;52.694;6.214;2024-02-14T05:48:01;9.30;99.90
57390;DHT22;43217;52.694;6.214;2024-02-14T05:50:27;9.40;99.90
57390;DHT22;43217;52.694;6.214;2024-02-14T05:52:53;9.40;99.90
57390;DHT22;43217;52.694;6.214;2024-02-14T05:55:19;9.40;99.90
57390;DHT22;43217;52.694;6.214;2024-02-14T05:57:44;9.40;99.90
57390;DHT22;43217;52.694;6.214;2024-02-14T06:00:10;9.50;99.90
57390;DHT22;43217;52.694;6.214;2024-02-14T06:02:38;9.50;99.90
57390;DHT22;43217;52.694;6.214;2024-02-14T06:05:08;9.40;99.90
57390;DHT22;43217;52.694;6.214;2024-02-14T06:07:36;9.50;99.90
57390;DHT22;43217;52.694;6.214;2024-02-14T06:10:02;9.50;99.90
57390;DHT22;43217;52.694;6.214;2024-02-14T06:12:27;9.50;99.90
57390;DHT22;43217;52.694;6.214;2024-02-14T06:14:55;9.50;99.90
57390;DHT22;43217;52.694;6.214;2024-02-14T06:17:20;9.50;99.90
57390;DHT22;43217;52.694;6.214;2024-02-14T06:19:46;9.50;99.90
57390;DHT22;43217;52.694;6.214;2024-02-14T06:22:12;9.60;99.90
57390;DHT22;43217;52.694;6.214;2024-02-14T06:24:37;9.60;99.90
57390;DHT22;43217;52.694;6.214;2024-02-14T06:27:03;9.50;99.90
57390;DHT22;43217;52.694;6.214;2024-02-14T06:29:29;9.60;99.90
57390;DHT22;43217;52.694;6.214;2024-02-14T06:31:54;9.60;99.90
57390;DHT22;43217;52.694;6.214;2024-02-14T06:34:20;9.60;99.90
57390;DHT22;43217;52.694;6.214;2024-02-14T06:36:49;9.60;99.90
57390;DHT22;43217;52.694;6.214;2024-02-14T06:39:14;9.60;99.90
57390;DHT22;43217;52.694;6.214;2024-02-14T06:41:40;9.70;99.90
57390;DHT22;43217;52.694;6.214;2024-02-14T06:44:06;9.60;99.90
57390;DHT22;43217;52.694;6.214;2024-02-14T06:46:31;9.70;99.90
57390;DHT22;43217;52.694;6.214;2024-02-14T06:48:57;9.70;99.90
57390;DHT22;43217;52.694;6.214;2024-02-14T06:51:23;9.70;99.90
57390;DHT22;43217;52.694;6.214;2024-02-14T06:53:50;9.70;99.90
57390;DHT22;43217;52.694;6.214;2024-02-14T06:56:15;9.70;99.90
57390;DHT22;43217;52.694;6.214;2024-02-14T06:58:41;9.70;99.90
57390;DHT22;43217;52.694;6.214;2024-02-14T07:01:07;9.70;99.90
57390;DHT22;43217;52.694;6.214;2024-02-14T07:03:33;9.70;99.90
57390;DHT22;43217;52.694;6.214;2024-02-14T07:05:59;9.70;99.90
57390;DHT22;43217;52.694;6.214;2024-02-14T07:08:25;9.70;99.90
57390;DHT22;43217;52.694;6.214;2024-02-14T07:10:54;9.70;99.90
57390;DHT22;43217;52.694;6.214;2024-02-14T07:13:20;9.70;99.90
57390;DHT22;43217;52.694;6.214;2024-02-14T07:15:46;9.70;99.90
57390;DHT22;43217;52.694;6.214;2024-02-14T07:18:11;9.70;99.90
57390;DHT22;43217;52.694;6.214;2024-02-14T07:20:37;9.70;99.90
57390;DHT22;43217;52.694;6.214;2024-02-14T07:23:03;9.70;99.90
57390;DHT22;43217;52.694;6.214;2024-02-14T07:25:29;9.70;99.90
57390;DHT22;43217;52.694;6.214;2024-02-14T07:27:55;9.70;99.90
57390;DHT22;43217;52.694;6.214;2024-02-14T07:30:20;9.70;99.90
57390;DHT22;43217;52.694;6.214;2024-02-14T07:32:46;9.70;99.90
57390;DHT22;43217;52.694;6.214;2024-02-14T07:35:12;9.70;99.90
57390;DHT22;43217;52.694;6.214;2024-02-14T07:37:39;9.70;99.90
57390;DHT22;43217;52.694;6.214;2024-02-14T07:40:05;9.70;99.90
57390;DHT22;43217;52.694;6.214;2024-02-14T07:42:31;9.70;99.90
57390;DHT22;43217;52.694;6.214;2024-02-14T07:44:57;9.70;99.90
57390;DHT22;43217;52.694;6.214;2024-02-14T07:47:23;9.80;99.90
57390;DHT22;43217;52.694;6.214;2024-02-14T07:49:48;9.70;99.90
57390;DHT22;43217;52.694;6.214;2024-02-14T07:52:14;9.80;99.90
57390;DHT22;43217;52.694;6.214;2024-02-14T07:54:39;9.80;99.90
57390;DHT22;43217;52.694;6.214;2024-02-14T07:57:05;9.80;99.90
57390;DHT22;43217;52.694;6.214;2024-02-14T07:59:31;9.80;99.90
57390;DHT22;43217;52.694;6.214;2024-02-14T08:01:57;9.80;99.90
57390;DHT22;43217;52.694;6.214;2024-02-14T08:04:23;9.80;99.90
57390;DHT22;43217;52.694;6.214;2024-02-14T08:06:48;9.90;99.90
57390;DHT22;43217;52.694;6.214;2024-02-14T08:09:17;9.90;99.90
57390;DHT22;43217;52.694;6.214;2024-02-14T08:11:42;9.90;99.90
57390;DHT22;43217;52.694;6.214;2024-02-14T08:14:08;9.90;99.90
57390;DHT22;43217;52.694;6.214;2024-02-14T08:16:34;9.90;99.90
57390;DHT22;43217;52.694;6.214;2024-02-14T08:19:01;9.90;99.90
57390;DHT22;43217;52.694;6.214;2024-02-14T08:21:28;9.90;99.90
57390;DHT22;43217;52.694;6.214;2024-02-14T08:23:54;9.90;99.90
57390;DHT22;43217;52.694;6.214;2024-02-14T08:26:23;9.90;99.90
57390;DHT22;43217;52.694;6.214;2024-02-14T08:28:49;10.00;99.90
57390;DHT22;43217;52.694;6.214;2024-02-14T08:31:15;10.00;99.90
57390;DHT22;43217;52.694;6.214;2024-02-14T08:33:41;10.00;99.90
57390;DHT22;43217;52.694;6.214;2024-02-14T08:36:07;10.00;99.90
57390;DHT22;43217;52.694;6.214;2024-02-14T08:38:33;10.00;99.90
57390;DHT22;43217;52.694;6.214;2024-02-14T08:41:00;10.00;99.90
57390;DHT22;43217;52.694;6.214;2024-02-14T08:43:26;10.00;99.90
57390;DHT22;43217;52.694;6.214;2024-02-14T08:45:54;10.00;99.90
57390;DHT22;43217;52.694;6.214;2024-02-14T08:48:19;10.00;99.90
57390;DHT22;43217;52.694;6.214;2024-02-14T08:50:45;10.00;99.90
57390;DHT22;43217;52.694;6.214;2024-02-14T08:53:12;10.00;99.90
57390;DHT22;43217;52.694;6.214;2024-02-14T08:55:42;10.00;99.90
57390;DHT22;43217;52.694;6.214;2024-02-14T08:58:07;10.10;99.90
57390;DHT22;43217;52.694;6.214;2024-02-14T09:00:35;10.10;99.90
57390;DHT22;43217;52.694;6.214;2024-02-14T09:03:02;10.10;99.90
57390;DHT22;43217;52.694;6.214;2024-02-14T09:05:28;10.10;99.90
57390;DHT22;43217;52.694;6.214;2024-02-14T09:07:54;10.10;99.90
57390;DHT22;43217;52.694;6.214;2024-02-14T09:10:20;10.10;99.90
57390;DHT22;43217;52.694;6.214;2024-02-14T09:12:46;10.10;99.90
57390;DHT22;43217;52.694;6.214;2024-02-14T09:15:12;10.10;99.90
57390;DHT22;43217;52.694;6.214;2024-02-14T09:17:38;10.20;99.90
57390;DHT22;43217;52.694;6.214;2024-02-14T09:20:06;10.20;99.90
57390;DHT22;43217;52.694;6.214;2024-02-14T09:22:38;10.20;99.90
57390;DHT22;43217;52.694;6.214;2024-02-14T09:25:04;10.20;99.90
57390;DHT22;43217;52.694;6.214;2024-02-14T09:27:30;10.20;99.90
57390;DHT22;43217;52.694;6.214;2024-02-14T09:29:56;10.30;99.90
57390;DHT22;43217;52.694;6.214;2024-02-14T09:32:21;10.30;99.90
57390;DHT22;43217;52.694;6.214;2024-02-14T09:34:47;10.30;99.90
57390;DHT22;43217;52.694;6.214;2024-02-14T09:37:12;10.40;99.90
57390;DHT22;43217;52.694;6.214;2024-02-14T09:39:38;10.40;99.90
57390;DHT22;43217;52.694;6.214;2024-02-14T09:42:09;10.40;99.90
57390;DHT22;43217;52.694;6.214;2024-02-14T09:44:36;10.40;99.90
57390;DHT22;43217;52.694;6.214;2024-02-14T09:47:04;10.40;99.90
57390;DHT22;43217;52.694;6.214;2024-02-14T09:49:31;10.50;99.90
57390;DHT22;43217;52.694;6.214;2024-02-14T09:51:58;10.50;99.90
57390;DHT22;43217;52.694;6.214;2024-02-14T09:54:24;10.50;99.90
57390;DHT22;43217;52.694;6.214;2024-02-14T09:56:51;10.50;99.90
57390;DHT22;43217;52.694;6.214;2024-02-14T09:59:20;10.50;99.90
57390;DHT22;43217;52.694;6.214;2024-02-14T10:01:47;10.50;99.90
57390;DHT22;43217;52.694;6.214;2024-02-14T10:04:15;10.60;99.90
57390;DHT22;43217;52.694;6.214;2024-02-14T10:06:43;10.50;99.90
57390;DHT22;43217;52.694;6.214;2024-02-14T10:09:08;10.50;99.90
57390;DHT22;43217;52.694;6.214;2024-02-14T10:11:36;10.50;99.90
57390;DHT22;43217;52.694;6.214;2024-02-14T10:14:04;10.50;99.90
57390;DHT22;43217;52.694;6.214;2024-02-14T10:16:30;10.60;99.90
57390;DHT22;43217;52.694;6.214;2024-02-14T10:18:55;10.60;99.90
57390;DHT22;43217;52.694;6.214;2024-02-14T10:21:24;10.60;99.90
57390;DHT22;43217;52.694;6.214;2024-02-14T10:23:51;10.60;99.90
57390;DHT22;43217;52.694;6.214;2024-02-14T10:26:18;10.60;99.90
57390;DHT22;43217;52.694;6.214;2024-02-14T10:28:45;10.60;99.90
57390;DHT22;43217;52.694;6.214;2024-02-14T10:31:26;10.60;99.90
57390;DHT22;43217;52.694;6.214;2024-02-14T10:33:54;10.60;99.90
57390;DHT22;43217;52.694;6.214;2024-02-14T10:36:21;10.60;99.90
57390;DHT22;43217;52.694;6.214;2024-02-14T10:38:47;10.70;99.90
57390;DHT22;43217;52.694;6.214;2024-02-14T10:41:16;10.70;99.90
57390;DHT22;43217;52.694;6.214;2024-02-14T10:43:42;10.70;99.90
57390;DHT22;43217;52.694;6.214;2024-02-14T10:46:18;10.70;99.90
57390;DHT22;43217;52.694;6.214;2024-02-14T10:48:45;10.80;99.90
57390;DHT22;43217;52.694;6.214;2024-02-14T10:51:12;10.80;99.90
57390;DHT22;43217;52.694;6.214;2024-02-14T10:53:41;10.80;99.90
57390;DHT22;43217;52.694;6.214;2024-02-14T10:56:12;10.80;99.90
57390;DHT22;43217;52.694;6.214;2024-02-14T10:58:41;10.90;99.90
57390;DHT22;43217;52.694;6.214;2024-02-14T11:01:07;10.90;99.90
57390;DHT22;43217;52.694;6.214;2024-02-14T11:03:34;10.90;99.90
57390;DHT22;43217;52.694;6.214;2024-02-14T11:06:02;11.00;99.90
57390;DHT22;43217;52.694;6.214;2024-02-14T11:08:29;11.00;99.90
57390;DHT22;43217;52.694;6.214;2024-02-14T11:10:59;11.00;99.90
57390;DHT22;43217;52.694;6.214;2024-02-14T11:13:26;11.10;99.90
57390;DHT22;43217;52.694;6.214;2024-02-14T11:15:57;11.10;99.90
57390;DHT22;43217;52.694;6.214;2024-02-14T11:18:29;11.10;99.90
57390;DHT22;43217;52.694;6.214;2024-02-14T11:20:58;11.10;99.90
57390;DHT22;43217;52.694;6.214;2024-02-14T11:23:24;11.10;99.90
57390;DHT22;43217;52.694;6.214;2024-02-14T11:25:59;11.20;99.90
57390;DHT22;43217;52.694;6.214;2024-02-14T11:28:25;11.20;99.90
57390;DHT22;43217;52.694;6.214;2024-02-14T11:31:00;11.20;99.90
57390;DHT22;43217;52.694;6.214;2024-02-14T11:33:26;11.20;99.90
57390;DHT22;43217;52.694;6.214;2024-02-14T11:35:54;11.20;99.90
57390;DHT22;43217;52.694;6.214;2024-02-14T11:38:21;11.30;99.90
57390;DHT22;43217;52.694;6.214;2024-02-14T11:40:47;11.30;99.90
57390;DHT22;43217;52.694;6.214;2024-02-14T11:43:15;11.30;99.90
57390;DHT22;43217;52.694;6.214;2024-02-14T11:45:43;11.30;99.90
57390;DHT22;43217;52.694;6.214;2024-02-14T11:48:14;11.30;99.90
57390;DHT22;43217;52.694;6.214;2024-02-14T11:50:43;11.30;99.90
57390;DHT22;43217;52.694;6.214;2024-02-14T11:53:10;11.30;99.90
57390;DHT22;43217;52.694;6.214;2024-02-14T11:55:37;11.30;99.90
57390;DHT22;43217;52.694;6.214;2024-02-14T11:58:07;11.30;99.90
57390;DHT22;43217;52.694;6.214;2024-02-14T12:00:33;11.30;99.90
57390;DHT22;43217;52.694;6.214;2024-02-14T12:03:01;11.30;99.90
57390;DHT22;43217;52.694;6.214;2024-02-14T12:05:27;11.20;99.90
57390;DHT22;43217;52.694;6.214;2024-02-14T12:07:52;11.20;99.90
57390;DHT22;43217;52.694;6.214;2024-02-14T12:10:19;11.20;99.90
57390;DHT22;43217;52.694;6.214;2024-02-14T12:12:47;11.30;99.90
57390;DHT22;43217;52.694;6.214;2024-02-14T12:15:13;11.20;99.90
57390;DHT22;43217;52.694;6.214;2024-02-14T12:17:41;11.20;99.90
57390;DHT22;43217;52.694;6.214;2024-02-14T12:20:11;11.20;99.90
57390;DHT22;43217;52.694;6.214;2024-02-14T12:22:39;11.30;99.90
57390;DHT22;43217;52.694;6.214;2024-02-14T12:25:09;11.30;99.90
57390;DHT22;43217;52.694;6.214;2024-02-14T12:27:37;11.30;99.90
57390;DHT22;43217;52.694;6.214;2024-02-14T12:30:07;11.30;99.90
57390;DHT22;43217;52.694;6.214;2024-02-14T12:32:33;11.30;99.90
57390;DHT22;43217;52.694;6.214;2024-02-14T12:34:59;11.30;99.90
57390;DHT22;43217;52.694;6.214;2024-02-14T12:37:25;11.30;99.90
57390;DHT22;43217;52.694;6.214;2024-02-14T12:39:51;11.30;99.90
57390;DHT22;43217;52.694;6.214;2024-02-14T12:42:18;11.30;99.90
57390;DHT22;43217;52.694;6.214;2024-02-14T12:44:50;11.30;99.90
57390;DHT22;43217;52.694;6.214;2024-02-14T12:47:17;11.30;99.90
57390;DHT22;43217;52.694;6.214;2024-02-14T12:49:43;11.30;99.90
57390;DHT22;43217;52.694;6.214;2024-02-14T12:52:09;11.40;99.90
57390;DHT22;43217;52.694;6.214;2024-02-14T12:54:34;11.30;99.90
57390;DHT22;43217;52.694;6.214;2024-02-14T12:57:00;11.40;99.90
57390;DHT22;43217;52.694;6.214;2024-02-14T12:59:26;11.40;99.90
57390;DHT22;43217;52.694;6.214;2024-02-14T13:01:52;11.40;99.90
57390;DHT22;43217;52.694;6.214;2024-02-14T13:04:17;11.40;99.90
57390;DHT22;43217;52.694;6.214;2024-02-14T13:06:43;11.40;99.90
57390;DHT22;43217;52.694;6.214;2024-02-14T13:09:08;11.40;99.90
57390;DHT22;43217;52.694;6.214;2024-02-14T13:11:35;11.40;99.90
57390;DHT22;43217;52.694;6.214;2024-02-14T13:14:01;11.40;99.90
57390;DHT22;43217;52.694;6.214;2024-02-14T13:16:26;11.40;99.90
57390;DHT22;43217;52.694;6.214;2024-02-14T13:18:52;11.40;99.90
57390;DHT22;43217;52.694;6.214;2024-02-14T13:21:18;11.40;99.90
57390;DHT22;43217;52.694;6.214;2024-02-14T13:23:44;11.40;99.90
57390;DHT22;43217;52.694;6.214;2024-02-14T13:26:09;11.40;99.90
57390;DHT22;43217;52.694;6.214;2024-02-14T13:28:35;11.40;99.90
57390;DHT22;43217;52.694;6.214;2024-02-14T13:31:01;11.40;99.90
57390;DHT22;43217;52.694;6.214;2024-02-14T13:33:27;11.40;99.90
57390;DHT22;43217;52.694;6.214;2024-02-14T13:35:53;11.40;99.90
57390;DHT22;43217;52.694;6.214;2024-02-14T13:38:19;11.40;99.90
57390;DHT22;43217;52.694;6.214;2024-02-14T13:40:44;11.40;99.90
57390;DHT22;43217;52.694;6.214;2024-02-14T13:43:10;11.50;99.90
57390;DHT22;43217;52.694;6.214;2024-02-14T13:45:41;11.50;99.90
57390;DHT22;43217;52.694;6.214;2024-02-14T13:48:10;11.50;99.90
57390;DHT22;43217;52.694;6.214;2024-02-14T13:50:37;11.50;99.90
57390;DHT22;43217;52.694;6.214;2024-02-14T13:53:03;11.60;99.90
57390;DHT22;43217;52.694;6.214;2024-02-14T13:55:32;11.50;99.90
57390;DHT22;43217;52.694;6.214;2024-02-14T13:57:58;11.50;99.90
57390;DHT22;43217;52.694;6.214;2024-02-14T14:00:23;11.50;99.90
57390;DHT22;43217;52.694;6.214;2024-02-14T14:02:49;11.50;99.90
57390;DHT22;43217;52.694;6.214;2024-02-14T14:05:14;11.50;99.90
57390;DHT22;43217;52.694;6.214;2024-02-14T14:07:41;11.50;99.90
57390;DHT22;43217;52.694;6.214;2024-02-14T14:10:09;11.50;99.90
57390;DHT22;43217;52.694;6.214;2024-02-14T14:12:34;11.40;99.90
57390;DHT22;43217;52.694;6.214;2024-02-14T14:15:01;11.40;99.90
57390;DHT22;43217;52.694;6.214;2024-02-14T14:17:27;11.40;99.90
57390;DHT22;43217;52.694;6.214;2024-02-14T14:19:53;11.50;99.90
57390;DHT22;43217;52.694;6.214;2024-02-14T14:22:19;11.50;99.90
57390;DHT22;43217;52.694;6.214;2024-02-14T14:24:45;11.50;99.90
57390;DHT22;43217;52.694;6.214;2024-02-14T14:27:13;11.50;99.90
57390;DHT22;43217;52.694;6.214;2024-02-14T14:29:43;11.40;99.90
57390;DHT22;43217;52.694;6.214;2024-02-14T14:32:09;11.50;99.90
57390;DHT22;43217;52.694;6.214;2024-02-14T14:34:35;11.40;99.90
57390;DHT22;43217;52.694;6.214;2024-02-14T14:37:02;11.40;99.90
57390;DHT22;43217;52.694;6.214;2024-02-14T14:39:28;11.50;99.90
57390;DHT22;43217;52.694;6.214;2024-02-14T14:41:54;11.50;99.90
57390;DHT22;43217;52.694;6.214;2024-02-14T14:44:26;11.60;99.90
57390;DHT22;43217;52.694;6.214;2024-02-14T14:46:53;11.60;99.90
57390;DHT22;43217;52.694;6.214;2024-02-14T14:49:18;11.60;99.90
57390;DHT22;43217;52.694;6.214;2024-02-14T14:51:44;11.60;99.90
57390;DHT22;43217;52.694;6.214;2024-02-14T14:54:10;11.60;99.90
57390;DHT22;43217;52.694;6.214;2024-02-14T14:56:36;11.60;99.90
57390;DHT22;43217;52.694;6.214;2024-02-14T14:59:02;11.60;99.90
57390;DHT22;43217;52.694;6.214;2024-02-14T15:01:32;11.60;99.90
57390;DHT22;43217;52.694;6.214;2024-02-14T15:03:59;11.60;99.90
57390;DHT22;43217;52.694;6.214;2024-02-14T15:06:25;11.60;99.90
57390;DHT22;43217;52.694;6.214;2024-02-14T15:08:51;11.60;99.90
57390;DHT22;43217;52.694;6.214;2024-02-14T15:11:17;11.60;99.90
57390;DHT22;43217;52.694;6.214;2024-02-14T15:13:44;11.60;99.90
57390;DHT22;43217;52.694;6.214;2024-02-14T15:16:11;11.60;99.90
57390;DHT22;43217;52.694;6.214;2024-02-14T15:18:39;11.60;99.90
57390;DHT22;43217;52.694;6.214;2024-02-14T15:21:05;11.60;99.90
57390;DHT22;43217;52.694;6.214;2024-02-14T15:23:32;11.60;99.90
57390;DHT22;43217;52.694;6.214;2024-02-14T15:25:58;11.60;99.90
57390;DHT22;43217;52.694;6.214;2024-02-14T15:28:32;11.60;99.90
57390;DHT22;43217;52.694;6.214;2024-02-14T15:30:59;11.60;99.90
57390;DHT22;43217;52.694;6.214;2024-02-14T15:33:43;11.60;99.90
57390;DHT22;43217;52.694;6.214;2024-02-14T15:36:09;11.60;99.90